createdAt,value
2023-10-23T00:01:42.337Z,4.75
2023-10-23T00:04:10.879Z,5.40
2023-10-23T00:06:38.070Z,5.85
2023-10-23T00:09:05.464Z,4.55
2023-10-23T00:11:33.051Z,6.13
2023-10-23T00:14:00.819Z,4.82
2023-10-23T00:16:28.016Z,5.03
2023-10-23T00:18:55.717Z,5.30
2023-10-23T00:21:22.899Z,4.80
2023-10-23T00:23:51.017Z,4.70
2023-10-23T00:26:18.696Z,4.97
2023-10-23T00:28:46.174Z,5.22
2023-10-23T00:31:13.197Z,4.88
2023-10-23T00:33:41.193Z,5.68
2023-10-23T00:36:08.605Z,5.03
2023-10-23T00:38:35.904Z,4.90
2023-10-23T00:41:02.865Z,4.47
2023-10-23T00:43:30.137Z,4.65
2023-10-23T00:46:01.567Z,4.18
2023-10-23T00:48:29.590Z,4.50
2023-10-23T00:51:02.347Z,4.30
2023-10-23T00:53:37.597Z,4.88
2023-10-23T00:56:07.595Z,4.53
2023-10-23T00:58:40.784Z,4.47
2023-10-23T01:01:14.378Z,4.65
2023-10-23T01:03:44.034Z,4.77
2023-10-23T01:06:14.255Z,4.88
2023-10-23T01:08:44.306Z,4.75
2023-10-23T01:11:11.480Z,4.90
2023-10-23T01:13:39.942Z,4.28
2023-10-23T01:16:06.906Z,4.10
2023-10-23T01:18:34.496Z,5.57
2023-10-23T01:21:01.436Z,4.05
2023-10-23T01:23:35.715Z,4.20
2023-10-23T01:26:03.119Z,4.30
2023-10-23T01:28:30.533Z,4.57
2023-10-23T01:30:57.582Z,4.40
2023-10-23T01:33:25.656Z,4.60
2023-10-23T01:35:52.776Z,3.95
2023-10-23T01:38:20.047Z,4.40
2023-10-23T01:40:47.049Z,4.35
2023-10-23T01:43:14.437Z,3.58
2023-10-23T01:45:41.509Z,4.18
2023-10-23T01:48:08.900Z,4.43
2023-10-23T01:50:36.056Z,4.15
2023-10-23T01:53:04.005Z,4.30
2023-10-23T01:55:31.101Z,4.97
2023-10-23T01:57:59.097Z,4.78
2023-10-23T02:00:26.819Z,4.07
2023-10-23T02:02:55.043Z,4.00
2023-10-23T02:05:22.097Z,4.15
2023-10-23T02:07:49.339Z,4.53
2023-10-23T02:10:16.313Z,4.93
2023-10-23T02:12:43.792Z,5.20
2023-10-23T02:15:11.963Z,4.18
2023-10-23T02:17:39.626Z,4.95
2023-10-23T02:20:07.743Z,4.30
2023-10-23T02:22:35.734Z,5.28
2023-10-23T02:25:02.720Z,4.75
2023-10-23T02:27:32.742Z,4.90
2023-10-23T02:29:59.957Z,4.38
2023-10-23T02:32:27.164Z,3.90
2023-10-23T02:34:54.766Z,4.30
2023-10-23T02:37:22.603Z,3.97
2023-10-23T02:39:49.756Z,4.03
2023-10-23T02:42:17.003Z,4.63
2023-10-23T02:44:45.100Z,4.68
2023-10-23T02:47:12.316Z,4.25
2023-10-23T02:49:39.711Z,4.68
2023-10-23T02:52:07.096Z,4.70
2023-10-23T02:54:34.083Z,4.80
2023-10-23T02:57:01.400Z,4.32
2023-10-23T02:59:28.439Z,3.97
2023-10-23T03:01:56.475Z,3.70
2023-10-23T03:04:23.624Z,4.15
2023-10-23T03:06:51.571Z,3.80
2023-10-23T03:09:18.817Z,4.18
2023-10-23T03:11:46.024Z,4.32
2023-10-23T03:14:12.892Z,4.60
2023-10-23T03:16:40.174Z,3.88
2023-10-23T03:19:07.157Z,4.50
2023-10-23T03:21:34.523Z,3.75
2023-10-23T03:24:01.570Z,3.78
2023-10-23T03:26:29.394Z,3.90
2023-10-23T03:28:57.002Z,3.67
2023-10-23T03:31:24.485Z,3.38
2023-10-23T03:33:53.344Z,3.30
2023-10-23T03:36:20.732Z,3.55
2023-10-23T03:38:47.742Z,3.97
2023-10-23T03:41:14.988Z,3.80
2023-10-23T03:43:42.046Z,3.88
2023-10-23T03:46:09.431Z,4.82
2023-10-23T03:48:37.164Z,3.90
2023-10-23T03:51:05.281Z,4.53
2023-10-23T03:53:32.322Z,4.03
2023-10-23T03:55:59.591Z,3.85
2023-10-23T03:58:26.642Z,3.88
2023-10-23T04:00:55.525Z,5.07
2023-10-23T04:03:23.071Z,4.43
2023-10-23T04:05:50.765Z,3.88
2023-10-23T04:08:18.031Z,4.50
2023-10-23T04:10:50.024Z,4.28
2023-10-23T04:13:18.031Z,4.28
2023-10-23T04:15:59.873Z,4.30
2023-10-23T04:18:27.329Z,4.50
2023-10-23T04:21:09.020Z,4.43
2023-10-23T04:23:40.836Z,4.50
2023-10-23T04:26:09.400Z,4.18
2023-10-23T04:28:40.242Z,4.18
2023-10-23T04:31:07.512Z,4.53
2023-10-23T04:33:35.037Z,4.45
2023-10-23T04:36:03.671Z,4.32
2023-10-23T04:38:33.160Z,3.97
2023-10-23T04:41:00.985Z,4.75
2023-10-23T04:43:28.230Z,4.78
2023-10-23T04:45:58.514Z,4.90
2023-10-23T04:48:26.164Z,3.85
2023-10-23T04:50:59.882Z,4.20
2023-10-23T04:53:28.571Z,3.75
2023-10-23T04:55:55.961Z,4.15
2023-10-23T04:58:23.057Z,5.47
2023-10-23T05:00:50.562Z,5.15
2023-10-23T05:03:17.641Z,3.78
2023-10-23T05:05:49.375Z,3.33
2023-10-23T05:08:16.718Z,4.70
2023-10-23T05:10:44.434Z,3.88
2023-10-23T05:13:11.821Z,3.88
2023-10-23T05:15:39.250Z,3.47
2023-10-23T05:18:06.714Z,4.40
2023-10-23T05:20:37.758Z,4.20
2023-10-23T05:23:04.930Z,4.15
2023-10-23T05:25:32.228Z,3.78
2023-10-23T05:27:59.823Z,4.45
2023-10-23T05:30:28.038Z,4.05
2023-10-23T05:32:55.170Z,3.53
2023-10-23T05:35:22.364Z,4.38
2023-10-23T05:37:49.619Z,4.30
2023-10-23T05:40:16.921Z,3.90
2023-10-23T05:42:44.054Z,3.65
2023-10-23T05:45:12.487Z,3.72
2023-10-23T05:47:39.514Z,5.63
2023-10-23T05:50:07.519Z,3.65
2023-10-23T05:52:34.573Z,3.85
2023-10-23T05:55:05.796Z,4.15
2023-10-23T05:57:33.089Z,3.05
2023-10-23T06:00:00.542Z,4.03
2023-10-23T06:02:28.468Z,3.47
2023-10-23T06:04:55.855Z,4.35
2023-10-23T06:07:23.009Z,4.10
2023-10-23T06:09:50.243Z,3.85
2023-10-23T06:12:17.338Z,3.92
2023-10-23T06:14:44.615Z,4.10
2023-10-23T06:17:11.657Z,4.20
2023-10-23T06:19:39.181Z,4.70
2023-10-23T06:22:06.476Z,3.78
2023-10-23T06:24:33.868Z,4.13
2023-10-23T06:27:00.889Z,4.30
2023-10-23T06:29:28.348Z,3.72
2023-10-23T06:31:57.406Z,4.35
2023-10-23T06:34:24.784Z,5.30
2023-10-23T06:36:51.770Z,4.32
2023-10-23T06:39:19.122Z,4.30
2023-10-23T06:41:46.088Z,3.95
2023-10-23T06:44:14.998Z,4.60
2023-10-23T06:46:42.194Z,3.85
2023-10-23T06:49:09.593Z,3.50
2023-10-23T06:51:37.715Z,5.50
2023-10-23T06:54:08.268Z,4.28
2023-10-23T06:56:35.299Z,5.28
2023-10-23T06:59:02.575Z,4.28
2023-10-23T07:01:41.659Z,3.60
2023-10-23T07:04:12.246Z,5.63
2023-10-23T07:06:39.371Z,5.18
2023-10-23T07:09:06.853Z,4.65
2023-10-23T07:11:33.987Z,4.60
2023-10-23T07:14:01.239Z,3.67
2023-10-23T07:16:28.461Z,3.78
2023-10-23T07:18:55.970Z,4.18
2023-10-23T07:21:27.050Z,4.50
2023-10-23T07:23:55.659Z,3.92
2023-10-23T07:26:22.688Z,4.07
2023-10-23T07:28:50.051Z,4.15
2023-10-23T07:31:18.263Z,3.90
2023-10-23T07:33:45.615Z,3.67
2023-10-23T07:36:14.700Z,3.67
2023-10-23T07:38:44.940Z,4.03
2023-10-23T07:41:15.422Z,3.55
2023-10-23T07:43:44.045Z,3.92
2023-10-23T07:46:17.216Z,4.38
2023-10-23T07:48:47.103Z,3.70
2023-10-23T07:51:15.235Z,3.63
2023-10-23T07:53:43.304Z,4.30
2023-10-23T07:56:13.973Z,3.30
2023-10-23T07:58:41.917Z,3.85
2023-10-23T08:01:12.454Z,3.03
2023-10-23T08:03:40.186Z,3.60
2023-10-23T08:06:10.490Z,3.30
2023-10-23T08:08:40.840Z,4.00
2023-10-23T08:11:12.184Z,3.35
2023-10-23T08:13:41.348Z,3.22
2023-10-23T08:16:08.652Z,3.58
2023-10-23T08:18:39.893Z,3.70
2023-10-23T08:21:17.082Z,3.40
2023-10-23T08:23:47.902Z,3.22
2023-10-23T08:26:15.621Z,3.22
2023-10-23T08:31:29.181Z,3.95
2023-10-23T08:33:57.640Z,3.75
2023-10-23T08:36:24.937Z,3.95
2023-10-23T08:38:52.329Z,4.43
2023-10-23T08:41:19.740Z,3.65
2023-10-23T08:43:47.364Z,3.60
2023-10-23T08:46:15.393Z,3.83
2023-10-23T08:48:43.059Z,4.78
2023-10-23T08:51:10.057Z,4.30
2023-10-23T08:54:09.371Z,3.70
2023-10-23T08:56:42.107Z,3.03
2023-10-23T08:59:15.601Z,3.28
2023-10-23T09:01:43.204Z,2.83
2023-10-23T09:04:12.522Z,2.70
2023-10-23T09:06:40.872Z,3.10
2023-10-23T09:09:08.449Z,3.30
2023-10-23T09:11:39.822Z,2.90
2023-10-23T09:14:07.093Z,2.95
2023-10-23T09:16:34.384Z,3.17
2023-10-23T09:19:01.993Z,2.95
2023-10-23T09:21:29.070Z,3.45
2023-10-23T09:24:04.707Z,3.33
2023-10-23T09:26:32.028Z,3.47
2023-10-23T09:28:59.455Z,2.80
2023-10-23T09:31:26.467Z,3.10
2023-10-23T09:33:56.272Z,2.97
2023-10-23T09:36:27.221Z,3.33
2023-10-23T09:39:00.538Z,3.05
2023-10-23T09:41:29.272Z,2.65
2023-10-23T09:43:58.826Z,2.97
2023-10-23T09:46:30.428Z,2.80
2023-10-23T09:49:04.861Z,3.08
2023-10-23T09:51:40.907Z,3.28
2023-10-23T09:54:21.391Z,3.28
2023-10-23T09:56:52.065Z,3.40
2023-10-23T09:59:28.496Z,2.97
2023-10-23T10:02:02.366Z,2.58
2023-10-23T10:04:53.846Z,3.80
2023-10-23T10:07:30.976Z,4.05
2023-10-23T10:09:59.835Z,3.90
2023-10-23T10:12:29.081Z,3.55
2023-10-23T10:14:58.551Z,4.10
2023-10-23T10:17:28.944Z,2.63
2023-10-23T10:20:03.141Z,3.10
2023-10-23T10:22:36.436Z,2.85
2023-10-23T10:25:07.675Z,2.28
2023-10-23T10:27:34.763Z,2.55
2023-10-23T10:30:07.979Z,2.50
2023-10-23T10:34:19.945Z,2.25
2023-10-23T10:35:41.486Z,1.80
2023-10-23T10:38:14.302Z,2.40
2023-10-23T10:40:58.333Z,1.73
2023-10-23T10:43:30.304Z,2.17
2023-10-23T10:45:58.025Z,2.10
2023-10-23T10:48:29.023Z,1.83
2023-10-23T10:50:56.721Z,3.15
2023-10-23T10:53:26.629Z,3.00
2023-10-23T10:55:54.499Z,2.55
2023-10-23T10:58:23.295Z,2.25
2023-10-23T11:00:51.567Z,1.90
2023-10-23T11:03:19.346Z,1.90
2023-10-23T11:05:48.200Z,1.85
2023-10-23T11:08:15.447Z,2.20
2023-10-23T11:10:42.903Z,2.10
2023-10-23T11:13:15.744Z,2.28
2023-10-23T11:15:43.477Z,1.95
2023-10-23T11:18:10.888Z,1.90
2023-10-23T11:20:40.346Z,1.80
2023-10-23T11:23:09.014Z,2.13
2023-10-23T11:25:37.319Z,1.70
2023-10-23T11:28:07.255Z,2.60
2023-10-23T11:30:47.492Z,4.30
2023-10-23T11:33:16.666Z,1.80
2023-10-23T11:35:44.122Z,2.08
2023-10-23T11:38:22.028Z,1.98
2023-10-23T11:40:49.688Z,1.95
2023-10-23T11:43:17.352Z,1.80
2023-10-23T11:45:48.366Z,1.77
2023-10-23T11:48:15.535Z,1.90
2023-10-23T11:50:43.703Z,2.60
2023-10-23T11:53:10.991Z,2.28
2023-10-23T11:55:39.549Z,1.42
2023-10-23T11:58:06.752Z,1.50
2023-10-23T12:00:36.451Z,1.55
2023-10-23T12:03:06.023Z,1.58
2023-10-23T12:05:34.137Z,1.13
2023-10-23T12:08:01.369Z,1.70
2023-10-23T12:10:29.448Z,2.13
2023-10-23T12:12:57.445Z,1.80
2023-10-23T12:15:25.205Z,1.95
2023-10-23T12:17:52.779Z,1.95
2023-10-23T12:20:23.351Z,1.83
2023-10-23T12:22:52.872Z,1.75
2023-10-23T12:25:20.463Z,1.50
2023-10-23T12:27:47.547Z,1.60
2023-10-23T12:30:23.912Z,1.63
2023-10-23T12:33:15.522Z,2.55
2023-10-23T12:35:44.904Z,1.70
2023-10-23T12:38:12.982Z,1.40
2023-10-23T12:40:42.653Z,1.40
2023-10-23T12:43:11.689Z,1.60
2023-10-23T12:45:39.096Z,1.60
2023-10-23T12:48:06.306Z,1.70
2023-10-23T12:50:33.976Z,1.20
2023-10-23T12:53:01.054Z,1.67
2023-10-23T12:55:28.375Z,1.48
2023-10-23T12:57:55.420Z,1.70
2023-10-23T13:00:22.751Z,1.50
2023-10-23T13:02:49.825Z,1.88
2023-10-23T13:05:18.025Z,1.75
2023-10-23T13:07:45.155Z,1.70
2023-10-23T13:10:12.637Z,1.63
2023-10-23T13:12:39.787Z,1.73
2023-10-23T13:15:09.718Z,1.20
2023-10-23T13:17:37.008Z,1.50
2023-10-23T13:21:28.948Z,1.27
2023-10-23T13:22:56.404Z,1.80
2023-10-23T13:25:23.949Z,1.50
2023-10-23T13:27:51.000Z,1.50
2023-10-23T13:30:18.327Z,1.30
2023-10-23T13:32:45.300Z,2.10
2023-10-23T13:35:15.856Z,1.50
2023-10-23T13:37:42.997Z,1.67
2023-10-23T13:40:10.638Z,1.75
2023-10-23T13:42:38.725Z,1.73
2023-10-23T13:45:07.142Z,1.60
2023-10-23T13:47:34.101Z,2.55
2023-10-23T13:50:01.421Z,2.03
2023-10-23T13:52:28.600Z,2.13
2023-10-23T13:54:57.818Z,1.73
2023-10-23T13:57:26.448Z,2.00
2023-10-23T13:59:53.780Z,1.88
2023-10-23T14:02:20.925Z,2.00
2023-10-23T14:04:49.564Z,2.03
2023-10-23T14:07:16.764Z,1.83
2023-10-23T14:09:47.411Z,2.08
2023-10-23T14:12:17.230Z,2.00
2023-10-23T14:14:55.759Z,1.92
2023-10-23T14:17:22.656Z,1.70
2023-10-23T14:19:49.946Z,1.92
2023-10-23T14:22:18.039Z,1.85
2023-10-23T14:24:45.544Z,3.10
2023-10-23T14:27:12.589Z,2.63
2023-10-23T14:29:40.266Z,2.00
2023-10-23T14:32:07.766Z,2.08
2023-10-23T14:34:36.457Z,1.77
2023-10-23T14:37:04.076Z,2.10
2023-10-23T14:39:31.379Z,2.17
2023-10-23T14:41:58.393Z,1.83
2023-10-23T14:44:25.865Z,1.85
2023-10-23T14:46:54.020Z,2.08
2023-10-23T14:49:23.148Z,2.45
2023-10-23T14:51:54.061Z,1.70
2023-10-23T14:54:21.925Z,2.40
2023-10-23T14:56:51.208Z,1.40
2023-10-23T14:59:18.970Z,1.85
2023-10-23T15:01:46.162Z,1.67
2023-10-23T15:04:13.761Z,1.48
2023-10-23T15:06:40.973Z,1.92
2023-10-23T15:09:08.252Z,1.60
2023-10-23T15:11:35.233Z,2.47
2023-10-23T15:14:02.601Z,2.20
2023-10-23T15:16:33.849Z,1.80
2023-10-23T15:19:04.127Z,2.08
2023-10-23T15:21:31.782Z,1.85
2023-10-23T15:23:59.741Z,2.38
2023-10-23T15:26:27.874Z,1.77
2023-10-23T15:28:55.303Z,1.98
2023-10-23T15:31:22.487Z,2.15
2023-10-23T15:33:49.872Z,2.47
2023-10-23T15:36:16.904Z,1.85
2023-10-23T15:38:44.194Z,2.60
2023-10-23T15:41:15.130Z,2.20
2023-10-23T15:43:48.815Z,2.25
2023-10-23T15:46:16.926Z,1.98
2023-10-23T15:48:45.626Z,2.50
2023-10-23T15:51:13.222Z,2.28
2023-10-23T15:53:40.732Z,3.05
2023-10-23T15:56:09.104Z,2.20
2023-10-23T15:58:36.750Z,2.67
2023-10-23T16:01:05.547Z,2.97
2023-10-23T16:03:36.928Z,2.80
2023-10-23T16:06:09.852Z,2.83
2023-10-23T16:08:38.244Z,2.60
2023-10-23T16:11:06.155Z,2.47
2023-10-23T16:13:38.086Z,2.95
2023-10-23T16:16:14.349Z,4.72
2023-10-23T16:18:44.743Z,3.15
2023-10-23T16:21:16.104Z,2.83
2023-10-23T16:23:44.137Z,2.58
2023-10-23T16:26:11.676Z,2.80
2023-10-23T16:28:40.124Z,3.22
2023-10-23T16:31:09.810Z,2.70
2023-10-23T16:33:37.379Z,2.70
2023-10-23T16:36:04.632Z,2.28
2023-10-23T16:38:31.963Z,3.03
2023-10-23T16:40:59.318Z,2.58
2023-10-23T16:43:27.580Z,2.42
2023-10-23T16:45:54.713Z,2.80
2023-10-23T16:48:22.194Z,2.53
2023-10-23T16:50:49.180Z,2.80
2023-10-23T16:53:18.151Z,2.83
2023-10-23T16:55:52.561Z,2.80
2023-10-23T16:58:24.561Z,3.08
2023-10-23T17:00:53.550Z,2.80
2023-10-23T17:03:21.879Z,3.47
2023-10-23T17:05:49.153Z,3.33
2023-10-23T17:08:16.384Z,2.60
2023-10-23T17:10:43.405Z,3.15
2023-10-23T17:13:10.612Z,3.22
2023-10-23T17:15:43.572Z,3.70
2023-10-23T17:18:10.844Z,3.47
2023-10-23T17:20:42.880Z,3.92
2023-10-23T17:23:10.410Z,3.80
2023-10-23T17:25:42.030Z,4.05
2023-10-23T17:28:09.496Z,3.67
2023-10-23T17:30:38.222Z,4.07
2023-10-23T17:33:07.682Z,4.72
2023-10-23T17:35:36.286Z,3.35
2023-10-23T17:38:04.168Z,3.88
2023-10-23T17:40:37.095Z,4.47
2023-10-23T17:43:05.198Z,3.97
2023-10-23T17:45:34.647Z,4.60
2023-10-23T17:48:02.463Z,4.60
2023-10-23T17:50:37.481Z,5.07
2023-10-23T17:53:06.284Z,4.50
2023-10-23T17:55:34.485Z,4.78
2023-10-23T17:58:01.975Z,4.82
2023-10-23T18:00:29.534Z,4.70
2023-10-23T18:02:57.339Z,5.47
2023-10-23T18:05:25.572Z,4.80
2023-10-23T18:07:59.371Z,4.10
2023-10-23T18:10:26.429Z,4.60
2023-10-23T18:12:54.909Z,4.93
2023-10-23T18:15:23.808Z,4.78
2023-10-23T18:17:53.656Z,5.20
2023-10-23T18:20:21.003Z,4.75
2023-10-23T18:22:48.568Z,4.82
2023-10-23T18:25:15.781Z,5.43
2023-10-23T18:27:43.321Z,4.93
2023-10-23T18:30:13.621Z,5.05
2023-10-23T18:32:42.246Z,5.75
2023-10-23T18:35:09.884Z,5.30
2023-10-23T18:37:37.251Z,4.85
2023-10-23T18:40:08.588Z,5.07
2023-10-23T18:42:37.457Z,5.07
2023-10-23T18:45:08.680Z,6.05
2023-10-23T18:47:36.697Z,6.40
2023-10-23T18:50:07.327Z,5.15
2023-10-23T18:52:34.997Z,5.18
2023-10-23T18:55:02.145Z,5.47
2023-10-23T18:57:29.785Z,5.30
2023-10-23T18:59:59.078Z,5.30
2023-10-23T19:02:26.446Z,4.80
2023-10-23T19:04:53.649Z,5.18
2023-10-23T19:07:21.655Z,4.60
2023-10-23T19:09:48.729Z,5.00
2023-10-23T19:12:16.174Z,6.32
2023-10-23T19:14:43.359Z,5.50
2023-10-23T19:17:18.776Z,5.00
2023-10-23T19:19:52.082Z,5.18
2023-10-23T19:22:19.443Z,5.43
2023-10-23T19:24:46.473Z,4.80
2023-10-23T19:27:13.980Z,4.95
2023-10-23T19:29:41.200Z,5.30
2023-10-23T19:32:09.725Z,4.80
2023-10-23T19:34:37.105Z,4.28
2023-10-23T19:37:05.092Z,5.45
2023-10-23T19:39:32.335Z,4.70
2023-10-23T19:42:03.237Z,4.88
2023-10-23T19:44:30.678Z,4.10
2023-10-23T19:46:58.527Z,4.88
2023-10-23T19:49:26.598Z,4.07
2023-10-23T19:51:56.726Z,7.18
2023-10-23T19:54:38.375Z,5.75
2023-10-23T19:57:11.242Z,6.40
2023-10-23T19:59:39.319Z,4.97
2023-10-23T20:02:07.122Z,4.50
2023-10-23T20:04:34.261Z,4.50
2023-10-23T20:07:01.680Z,4.53
2023-10-23T20:09:28.774Z,5.13
2023-10-23T20:11:56.183Z,4.30
2023-10-23T20:14:23.627Z,5.05
2023-10-23T20:16:50.893Z,4.88
2023-10-23T20:19:20.507Z,4.68
2023-10-23T20:21:48.256Z,5.47
2023-10-23T20:24:15.756Z,5.30
2023-10-23T20:26:43.611Z,5.28
2023-10-23T20:29:10.921Z,4.30
2023-10-23T20:31:38.410Z,4.50
2023-10-23T20:34:05.638Z,4.15
2023-10-23T20:36:33.973Z,4.00
2023-10-23T20:39:01.249Z,4.28
2023-10-23T20:41:28.681Z,4.10
2023-10-23T20:43:55.683Z,4.53
2023-10-23T20:46:23.172Z,4.35
2023-10-23T20:48:50.507Z,4.40
2023-10-23T20:51:17.992Z,4.65
2023-10-23T20:53:44.997Z,5.00
2023-10-23T20:56:12.262Z,5.53
2023-10-23T20:58:39.299Z,4.95
2023-10-23T21:01:08.700Z,4.55
2023-10-23T21:03:37.205Z,11.13
2023-10-23T21:06:06.288Z,6.07
2023-10-23T21:08:40.779Z,7.45
2023-10-23T21:11:08.702Z,5.95
2023-10-23T21:13:36.491Z,5.00
2023-10-23T21:16:06.944Z,4.88
2023-10-23T21:18:34.286Z,6.10
2023-10-23T21:21:01.903Z,5.68
2023-10-23T21:23:30.244Z,4.82
2023-10-23T21:25:58.139Z,4.53
2023-10-23T21:28:28.289Z,5.40
2023-10-23T21:30:55.729Z,4.20
2023-10-23T21:33:23.034Z,5.63
2023-10-23T21:35:52.544Z,4.82
2023-10-23T21:38:20.906Z,4.63
2023-10-23T21:40:48.981Z,6.22
2023-10-23T21:43:16.341Z,5.25
2023-10-23T21:45:43.818Z,4.60
2023-10-23T21:48:11.962Z,5.43
2023-10-23T21:50:44.891Z,4.60
2023-10-23T21:53:12.922Z,4.85
2023-10-23T21:55:42.361Z,5.15
2023-10-23T21:58:09.878Z,4.55
2023-10-23T22:00:39.172Z,4.55
2023-10-23T22:03:06.448Z,5.13
2023-10-23T22:05:34.095Z,4.63
2023-10-23T22:08:01.288Z,4.80
2023-10-23T22:10:29.361Z,4.65
2023-10-23T22:12:58.066Z,5.55
2023-10-23T22:15:25.534Z,5.20
2023-10-23T22:17:54.095Z,4.90
2023-10-23T22:20:21.860Z,5.25
2023-10-23T22:22:48.958Z,5.35
2023-10-23T22:25:16.606Z,6.88
2023-10-23T22:27:43.761Z,5.85
2023-10-23T22:30:12.161Z,5.80
2023-10-23T22:32:39.460Z,5.65
2023-10-23T22:35:07.197Z,5.78
2023-10-23T22:38:02.085Z,6.88
2023-10-23T22:40:25.039Z,5.45
2023-10-23T22:42:52.806Z,6.10
2023-10-23T22:45:20.276Z,6.65
2023-10-23T22:47:47.194Z,5.18
2023-10-23T22:50:14.996Z,5.68
2023-10-23T22:52:43.692Z,5.68
2023-10-23T22:55:12.352Z,6.40
2023-10-23T22:57:40.980Z,6.40
2023-10-23T23:00:10.846Z,5.85
2023-10-23T23:02:39.466Z,5.70
2023-10-23T23:05:08.211Z,5.93
2023-10-23T23:07:41.235Z,6.50
2023-10-23T23:10:13.718Z,7.13
2023-10-23T23:12:41.471Z,6.28
2023-10-23T23:15:09.532Z,6.80
2023-10-23T23:17:40.569Z,5.78
2023-10-23T23:20:12.757Z,6.10
2023-10-23T23:22:40.567Z,5.88
2023-10-23T23:25:10.006Z,6.18
2023-10-23T23:27:37.076Z,6.03
2023-10-23T23:30:04.992Z,6.28
2023-10-23T23:32:32.132Z,5.70
2023-10-23T23:34:59.457Z,5.60
2023-10-23T23:37:26.484Z,5.82
2023-10-23T23:39:53.686Z,5.93
2023-10-23T23:42:20.673Z,5.07
2023-10-23T23:44:47.940Z,5.70
2023-10-23T23:47:14.938Z,6.70
2023-10-23T23:49:42.281Z,6.10
2023-10-23T23:52:09.983Z,6.57
2023-10-23T23:54:37.219Z,7.20
2023-10-23T23:57:04.294Z,6.32
2023-10-23T23:59:31.545Z,5.93
